sensor_id;sensor_type;location;lat;lon;timestamp;pressure;altitude;pressure_sealevel;temperature;humidity
50380;BME280;37474;59.468;18.040;2022-09-09T00:01:27;102144.34;;;6.85;100.00
50380;BME280;37474;59.468;18.040;2022-09-09T00:04:05;102145.09;;;6.92;100.00
50380;BME280;37474;59.468;18.040;2022-09-09T00:06:44;102147.78;;;6.87;100.00
50380;BME280;37474;59.468;18.040;2022-09-09T00:09:16;102145.94;;;6.93;100.00
50380;BME280;37474;59.468;18.040;2022-09-09T00:11:51;102149.81;;;6.73;100.00
50380;BME280;37474;59.468;18.040;2022-09-09T00:14:26;102147.28;;;6.69;100.00
50380;BME280;37474;59.468;18.040;2022-09-09T00:17:03;102155.25;;;6.61;100.00
50380;BME280;37474;59.468;18.040;2022-09-09T00:19:38;102150.34;;;6.44;100.00
50380;BME280;37474;59.468;18.040;2022-09-09T00:22:16;102128.13;;;6.27;100.00
50380;BME280;37474;59.468;18.040;2022-09-09T00:24:48;102147.22;;;6.26;100.00
50380;BME280;37474;59.468;18.040;2022-09-09T00:27:26;102131.03;;;6.11;100.00
50380;BME280;37474;59.468;18.040;2022-09-09T00:30:12;102134.97;;;6.32;100.00
50380;BME280;37474;59.468;18.040;2022-09-09T00:32:44;102131.69;;;6.22;100.00
50380;BME280;37474;59.468;18.040;2022-09-09T00:35:17;102128.31;;;6.17;100.00
50380;BME280;37474;59.468;18.040;2022-09-09T00:37:50;102118.47;;;6.33;100.00
50380;BME280;37474;59.468;18.040;2022-09-09T00:40:24;102136.28;;;6.54;100.00
50380;BME280;37474;59.468;18.040;2022-09-09T00:43:12;102135.38;;;6.57;100.00
50380;BME280;37474;59.468;18.040;2022-09-09T00:46:05;102106.09;;;6.44;100.00
50380;BME280;37474;59.468;18.040;2022-09-09T00:48:50;102123.00;;;6.68;100.00
50380;BME280;37474;59.468;18.040;2022-09-09T00:51:29;102108.94;;;6.77;100.00
50380;BME280;37474;59.468;18.040;2022-09-09T00:54:27;102125.38;;;6.79;100.00
50380;BME280;37474;59.468;18.040;2022-09-09T00:57:10;102123.66;;;6.79;100.00
50380;BME280;37474;59.468;18.040;2022-09-09T00:59:47;102113.25;;;6.78;100.00
50380;BME280;37474;59.468;18.040;2022-09-09T01:02:25;102124.84;;;7.05;100.00
50380;BME280;37474;59.468;18.040;2022-09-09T01:05:02;102122.97;;;7.11;100.00
50380;BME280;37474;59.468;18.040;2022-09-09T01:07:36;102124.34;;;7.28;100.00
50380;BME280;37474;59.468;18.040;2022-09-09T01:10:09;102117.38;;;7.28;100.00
50380;BME280;37474;59.468;18.040;2022-09-09T01:12:46;102118.09;;;7.35;100.00
50380;BME280;37474;59.468;18.040;2022-09-09T01:15:20;102102.56;;;7.30;100.00
50380;BME280;37474;59.468;18.040;2022-09-09T01:17:58;102116.28;;;7.38;100.00
50380;BME280;37474;59.468;18.040;2022-09-09T01:20:35;102110.16;;;7.39;100.00
50380;BME280;37474;59.468;18.040;2022-09-09T01:23:20;102099.59;;;7.45;100.00
50380;BME280;37474;59.468;18.040;2022-09-09T01:26:19;102103.88;;;7.48;100.00
50380;BME280;37474;59.468;18.040;2022-09-09T01:28:52;102098.53;;;7.54;100.00
50380;BME280;37474;59.468;18.040;2022-09-09T01:31:23;102099.31;;;7.58;100.00
50380;BME280;37474;59.468;18.040;2022-09-09T01:33:56;102094.81;;;7.64;100.00
50380;BME280;37474;59.468;18.040;2022-09-09T01:36:29;102099.09;;;7.67;100.00
50380;BME280;37474;59.468;18.040;2022-09-09T01:39:04;102100.41;;;7.84;100.00
50380;BME280;37474;59.468;18.040;2022-09-09T01:41:35;102087.75;;;8.03;100.00
50380;BME280;37474;59.468;18.040;2022-09-09T01:44:03;102088.56;;;8.05;100.00
50380;BME280;37474;59.468;18.040;2022-09-09T01:46:34;102082.56;;;8.02;100.00
50380;BME280;37474;59.468;18.040;2022-09-09T01:49:05;102087.91;;;7.97;100.00
50380;BME280;37474;59.468;18.040;2022-09-09T01:51:37;102090.38;;;8.02;100.00
50380;BME280;37474;59.468;18.040;2022-09-09T01:54:08;102092.75;;;8.11;100.00
50380;BME280;37474;59.468;18.040;2022-09-09T01:56:43;102091.03;;;8.10;100.00
50380;BME280;37474;59.468;18.040;2022-09-09T01:59:28;102093.03;;;8.00;100.00
50380;BME280;37474;59.468;18.040;2022-09-09T02:02:09;102081.63;;;8.04;100.00
50380;BME280;37474;59.468;18.040;2022-09-09T02:04:41;102089.38;;;8.07;100.00
50380;BME280;37474;59.468;18.040;2022-09-09T02:07:21;102084.94;;;8.11;100.00
50380;BME280;37474;59.468;18.040;2022-09-09T02:10:02;102081.34;;;7.81;100.00
50380;BME280;37474;59.468;18.040;2022-09-09T02:12:37;102081.75;;;8.00;100.00
50380;BME280;37474;59.468;18.040;2022-09-09T02:15:17;102067.09;;;7.94;100.00
50380;BME280;37474;59.468;18.040;2022-09-09T02:17:46;102071.97;;;8.08;100.00
50380;BME280;37474;59.468;18.040;2022-09-09T02:20:19;102073.09;;;8.30;100.00
50380;BME280;37474;59.468;18.040;2022-09-09T02:22:50;102056.34;;;8.06;100.00
50380;BME280;37474;59.468;18.040;2022-09-09T02:25:25;102068.88;;;8.26;100.00
50380;BME280;37474;59.468;18.040;2022-09-09T02:27:56;102056.47;;;8.34;100.00
50380;BME280;37474;59.468;18.040;2022-09-09T02:30:28;102055.19;;;8.49;100.00
50380;BME280;37474;59.468;18.040;2022-09-09T02:33:00;102060.13;;;8.58;100.00
50380;BME280;37474;59.468;18.040;2022-09-09T02:35:34;102060.31;;;8.52;100.00
50380;BME280;37474;59.468;18.040;2022-09-09T02:38:06;102060.09;;;8.60;100.00
50380;BME280;37474;59.468;18.040;2022-09-09T02:40:40;102042.63;;;8.62;100.00
50380;BME280;37474;59.468;18.040;2022-09-09T02:43:09;102048.41;;;8.73;100.00
50380;BME280;37474;59.468;18.040;2022-09-09T02:45:47;102054.84;;;8.91;100.00
50380;BME280;37474;59.468;18.040;2022-09-09T02:48:26;102055.28;;;9.05;100.00
50380;BME280;37474;59.468;18.040;2022-09-09T02:51:05;102040.44;;;9.05;100.00
50380;BME280;37474;59.468;18.040;2022-09-09T02:53:46;102043.78;;;9.10;100.00
50380;BME280;37474;59.468;18.040;2022-09-09T02:56:20;102050.91;;;9.05;100.00
50380;BME280;37474;59.468;18.040;2022-09-09T02:58:52;102047.28;;;8.81;100.00
50380;BME280;37474;59.468;18.040;2022-09-09T03:01:21;102052.59;;;8.78;100.00
50380;BME280;37474;59.468;18.040;2022-09-09T03:03:49;102050.06;;;8.75;100.00
50380;BME280;37474;59.468;18.040;2022-09-09T03:06:16;102037.63;;;8.83;100.00
50380;BME280;37474;59.468;18.040;2022-09-09T03:08:46;102044.97;;;9.00;100.00
50380;BME280;37474;59.468;18.040;2022-09-09T03:11:16;102018.25;;;8.91;100.00
50380;BME280;37474;59.468;18.040;2022-09-09T03:13:46;102025.53;;;9.09;100.00
50380;BME280;37474;59.468;18.040;2022-09-09T03:16:18;102034.97;;;9.13;100.00
50380;BME280;37474;59.468;18.040;2022-09-09T03:18:49;102029.81;;;9.11;100.00
50380;BME280;37474;59.468;18.040;2022-09-09T03:21:20;102039.34;;;9.12;100.00
50380;BME280;37474;59.468;18.040;2022-09-09T03:23:48;102027.84;;;9.18;100.00
50380;BME280;37474;59.468;18.040;2022-09-09T03:26:20;102025.44;;;9.12;100.00
50380;BME280;37474;59.468;18.040;2022-09-09T03:28:49;102013.47;;;9.05;100.00
50380;BME280;37474;59.468;18.040;2022-09-09T03:31:19;102022.53;;;9.21;100.00
50380;BME280;37474;59.468;18.040;2022-09-09T03:33:51;102023.25;;;9.26;100.00
50380;BME280;37474;59.468;18.040;2022-09-09T03:36:19;102021.00;;;9.40;100.00
50380;BME280;37474;59.468;18.040;2022-09-09T03:38:47;102010.72;;;9.36;100.00
50380;BME280;37474;59.468;18.040;2022-09-09T03:41:21;102012.31;;;9.40;100.00
50380;BME280;37474;59.468;18.040;2022-09-09T03:43:50;102010.34;;;9.46;100.00
50380;BME280;37474;59.468;18.040;2022-09-09T03:46:19;102018.19;;;9.46;100.00
50380;BME280;37474;59.468;18.040;2022-09-09T03:48:50;102013.66;;;9.51;100.00
50380;BME280;37474;59.468;18.040;2022-09-09T03:51:19;102015.38;;;9.52;100.00
50380;BME280;37474;59.468;18.040;2022-09-09T03:53:49;102006.41;;;9.60;100.00
50380;BME280;37474;59.468;18.040;2022-09-09T03:56:22;102016.56;;;9.69;100.00
50380;BME280;37474;59.468;18.040;2022-09-09T03:58:49;101995.94;;;9.60;100.00
50380;BME280;37474;59.468;18.040;2022-09-09T04:01:17;102005.09;;;9.73;100.00
50380;BME280;37474;59.468;18.040;2022-09-09T04:03:49;102002.25;;;9.79;100.00
50380;BME280;37474;59.468;18.040;2022-09-09T04:06:20;101999.22;;;9.66;100.00
50380;BME280;37474;59.468;18.040;2022-09-09T04:08:51;102006.00;;;9.72;100.00
50380;BME280;37474;59.468;18.040;2022-09-09T04:11:19;102004.22;;;9.72;100.00
50380;BME280;37474;59.468;18.040;2022-09-09T04:13:47;102015.50;;;9.74;100.00
50380;BME280;37474;59.468;18.040;2022-09-09T04:16:17;102008.19;;;9.84;100.00
50380;BME280;37474;59.468;18.040;2022-09-09T04:18:48;102004.41;;;9.93;100.00
50380;BME280;37474;59.468;18.040;2022-09-09T04:21:17;102000.59;;;10.01;100.00
50380;BME280;37474;59.468;18.040;2022-09-09T04:23:48;102008.03;;;10.13;100.00
50380;BME280;37474;59.468;18.040;2022-09-09T04:26:15;102003.81;;;10.09;100.00
50380;BME280;37474;59.468;18.040;2022-09-09T04:28:43;101989.97;;;10.06;100.00
50380;BME280;37474;59.468;18.040;2022-09-09T04:31:16;101995.00;;;10.12;100.00
50380;BME280;37474;59.468;18.040;2022-09-09T04:33:48;102001.88;;;10.14;100.00
50380;BME280;37474;59.468;18.040;2022-09-09T04:36:18;101999.94;;;10.21;100.00
50380;BME280;37474;59.468;18.040;2022-09-09T04:38:46;102001.41;;;10.28;100.00
50380;BME280;37474;59.468;18.040;2022-09-09T04:41:17;102000.84;;;10.19;100.00
50380;BME280;37474;59.468;18.040;2022-09-09T04:43:47;101999.25;;;10.14;100.00
50380;BME280;37474;59.468;18.040;2022-09-09T04:46:15;102003.13;;;10.29;100.00
50380;BME280;37474;59.468;18.040;2022-09-09T04:48:45;101985.75;;;10.27;100.00
50380;BME280;37474;59.468;18.040;2022-09-09T04:51:16;101997.25;;;10.23;100.00
50380;BME280;37474;59.468;18.040;2022-09-09T04:53:44;101999.47;;;10.33;100.00
50380;BME280;37474;59.468;18.040;2022-09-09T04:56:15;102000.09;;;10.40;100.00
50380;BME280;37474;59.468;18.040;2022-09-09T04:58:47;101988.78;;;10.39;100.00
50380;BME280;37474;59.468;18.040;2022-09-09T05:01:17;102003.63;;;10.39;100.00
50380;BME280;37474;59.468;18.040;2022-09-09T05:03:45;102009.78;;;10.38;100.00
50380;BME280;37474;59.468;18.040;2022-09-09T05:06:18;101994.28;;;10.32;100.00
50380;BME280;37474;59.468;18.040;2022-09-09T05:08:48;101992.75;;;10.26;100.00
50380;BME280;37474;59.468;18.040;2022-09-09T05:11:19;102013.97;;;10.42;100.00
50380;BME280;37474;59.468;18.040;2022-09-09T05:13:51;102004.06;;;10.50;100.00
50380;BME280;37474;59.468;18.040;2022-09-09T05:16:20;102010.31;;;10.46;100.00
50380;BME280;37474;59.468;18.040;2022-09-09T05:18:49;101999.25;;;10.39;100.00
50380;BME280;37474;59.468;18.040;2022-09-09T05:21:23;101998.09;;;10.46;100.00
50380;BME280;37474;59.468;18.040;2022-09-09T05:23:53;102004.84;;;10.52;100.00
50380;BME280;37474;59.468;18.040;2022-09-09T05:26:22;102006.69;;;10.50;100.00
50380;BME280;37474;59.468;18.040;2022-09-09T05:28:50;102008.84;;;10.62;100.00
50380;BME280;37474;59.468;18.040;2022-09-09T05:31:19;102006.84;;;10.69;100.00
50380;BME280;37474;59.468;18.040;2022-09-09T05:33:49;102003.69;;;10.82;100.00
50380;BME280;37474;59.468;18.040;2022-09-09T05:36:20;101998.25;;;10.65;100.00
50380;BME280;37474;59.468;18.040;2022-09-09T05:38:52;102004.91;;;10.74;100.00
50380;BME280;37474;59.468;18.040;2022-09-09T05:41:21;101990.69;;;10.58;100.00
50380;BME280;37474;59.468;18.040;2022-09-09T05:43:49;102008.75;;;10.87;100.00
50380;BME280;37474;59.468;18.040;2022-09-09T05:46:22;102001.31;;;10.98;100.00
50380;BME280;37474;59.468;18.040;2022-09-09T05:48:52;102001.56;;;10.92;100.00
50380;BME280;37474;59.468;18.040;2022-09-09T05:51:25;102008.88;;;11.28;100.00
50380;BME280;37474;59.468;18.040;2022-09-09T05:53:54;102003.19;;;11.38;100.00
50380;BME280;37474;59.468;18.040;2022-09-09T05:56:29;102012.19;;;11.73;100.00
50380;BME280;37474;59.468;18.040;2022-09-09T05:58:59;102005.91;;;11.98;100.00
50380;BME280;37474;59.468;18.040;2022-09-09T06:01:29;102017.56;;;12.50;92.59
50380;BME280;37474;59.468;18.040;2022-09-09T06:04:01;101999.53;;;12.61;90.06
50380;BME280;37474;59.468;18.040;2022-09-09T06:06:33;102007.19;;;12.85;89.37
50380;BME280;37474;59.468;18.040;2022-09-09T06:09:08;101999.81;;;13.29;79.87
50380;BME280;37474;59.468;18.040;2022-09-09T06:11:38;102005.63;;;13.53;75.24
50380;BME280;37474;59.468;18.040;2022-09-09T06:14:10;102012.94;;;13.48;73.98
50380;BME280;37474;59.468;18.040;2022-09-09T06:16:38;102006.41;;;13.55;72.83
50380;BME280;37474;59.468;18.040;2022-09-09T06:19:08;102005.84;;;13.65;70.91
50380;BME280;37474;59.468;18.040;2022-09-09T06:21:42;102010.31;;;13.98;70.71
50380;BME280;37474;59.468;18.040;2022-09-09T06:24:10;102014.97;;;14.10;67.61
50380;BME280;37474;59.468;18.040;2022-09-09T06:26:44;102013.28;;;13.74;65.28
50380;BME280;37474;59.468;18.040;2022-09-09T06:29:14;101994.16;;;13.71;66.13
50380;BME280;37474;59.468;18.040;2022-09-09T06:31:42;102011.19;;;13.98;66.14
50380;BME280;37474;59.468;18.040;2022-09-09T06:34:12;102020.94;;;13.96;65.93
50380;BME280;37474;59.468;18.040;2022-09-09T06:36:43;102013.22;;;13.76;67.72
50380;BME280;37474;59.468;18.040;2022-09-09T06:39:12;102010.09;;;13.85;66.28
50380;BME280;37474;59.468;18.040;2022-09-09T06:41:46;102012.25;;;14.12;65.30
50380;BME280;37474;59.468;18.040;2022-09-09T06:44:18;102006.97;;;14.12;63.70
50380;BME280;37474;59.468;18.040;2022-09-09T06:46:49;102000.97;;;14.25;64.30
50380;BME280;37474;59.468;18.040;2022-09-09T06:49:17;101997.31;;;14.45;63.50
50380;BME280;37474;59.468;18.040;2022-09-09T06:51:47;102009.13;;;14.69;62.86
50380;BME280;37474;59.468;18.040;2022-09-09T06:54:16;102006.22;;;14.74;62.19
50380;BME280;37474;59.468;18.040;2022-09-09T06:56:44;102004.63;;;14.71;62.28
50380;BME280;37474;59.468;18.040;2022-09-09T06:59:12;102015.00;;;15.06;59.87
50380;BME280;37474;59.468;18.040;2022-09-09T07:01:43;101999.16;;;14.75;59.67
50380;BME280;37474;59.468;18.040;2022-09-09T07:04:19;102029.56;;;14.33;60.54
50380;BME280;37474;59.468;18.040;2022-09-09T07:06:52;102022.78;;;14.12;61.98
50380;BME280;37474;59.468;18.040;2022-09-09T07:09:20;102024.63;;;14.27;62.56
50380;BME280;37474;59.468;18.040;2022-09-09T07:11:50;102027.09;;;14.30;63.34
50380;BME280;37474;59.468;18.040;2022-09-09T07:14:23;102031.50;;;14.47;62.94
50380;BME280;37474;59.468;18.040;2022-09-09T07:16:51;102017.16;;;14.35;62.50
50380;BME280;37474;59.468;18.040;2022-09-09T07:19:25;102030.66;;;14.46;60.71
50380;BME280;37474;59.468;18.040;2022-09-09T07:21:54;102028.94;;;14.28;60.45
50380;BME280;37474;59.468;18.040;2022-09-09T07:24:22;102026.31;;;14.45;61.63
50380;BME280;37474;59.468;18.040;2022-09-09T07:26:52;102024.44;;;14.47;60.46
50380;BME280;37474;59.468;18.040;2022-09-09T07:29:24;102025.03;;;14.52;61.32
50380;BME280;37474;59.468;18.040;2022-09-09T07:31:54;102020.28;;;14.75;60.46
50380;BME280;37474;59.468;18.040;2022-09-09T07:34:37;102027.00;;;14.96;58.89
50380;BME280;37474;59.468;18.040;2022-09-09T07:37:09;102020.34;;;15.04;60.28
50380;BME280;37474;59.468;18.040;2022-09-09T07:39:44;102017.22;;;15.44;60.40
50380;BME280;37474;59.468;18.040;2022-09-09T07:42:22;102015.66;;;15.55;58.24
50380;BME280;37474;59.468;18.040;2022-09-09T07:44:53;102025.41;;;15.39;58.50
50380;BME280;37474;59.468;18.040;2022-09-09T07:47:21;102011.19;;;15.42;58.44
50380;BME280;37474;59.468;18.040;2022-09-09T07:49:51;102021.03;;;15.84;56.91
50380;BME280;37474;59.468;18.040;2022-09-09T07:52:24;102017.63;;;15.06;58.60
50380;BME280;37474;59.468;18.040;2022-09-09T07:54:53;102027.59;;;15.01;59.93
50380;BME280;37474;59.468;18.040;2022-09-09T07:57:22;102020.94;;;14.78;60.22
50380;BME280;37474;59.468;18.040;2022-09-09T07:59:50;102022.50;;;14.98;58.87
50380;BME280;37474;59.468;18.040;2022-09-09T08:02:18;102027.75;;;14.98;58.69
50380;BME280;37474;59.468;18.040;2022-09-09T08:04:46;102024.75;;;14.57;59.13
50380;BME280;37474;59.468;18.040;2022-09-09T08:07:14;102024.53;;;14.77;57.39
50380;BME280;37474;59.468;18.040;2022-09-09T08:09:44;102028.88;;;14.78;57.24
50380;BME280;37474;59.468;18.040;2022-09-09T08:12:13;102048.41;;;14.58;57.41
50380;BME280;37474;59.468;18.040;2022-09-09T08:14:41;102038.47;;;14.63;55.81
50380;BME280;37474;59.468;18.040;2022-09-09T08:17:08;102023.81;;;14.58;56.08
50380;BME280;37474;59.468;18.040;2022-09-09T08:19:36;102042.31;;;14.73;56.50
50380;BME280;37474;59.468;18.040;2022-09-09T08:22:07;102049.97;;;14.94;57.44
50380;BME280;37474;59.468;18.040;2022-09-09T08:24:35;102025.19;;;15.12;56.06
50380;BME280;37474;59.468;18.040;2022-09-09T08:27:05;102049.00;;;15.42;56.06
50380;BME280;37474;59.468;18.040;2022-09-09T08:29:43;102056.44;;;15.04;57.83
50380;BME280;37474;59.468;18.040;2022-09-09T08:32:12;102055.81;;;14.67;58.92
50380;BME280;37474;59.468;18.040;2022-09-09T08:35:00;102064.94;;;14.78;59.26
50380;BME280;37474;59.468;18.040;2022-09-09T08:37:35;102056.78;;;14.82;58.45
50380;BME280;37474;59.468;18.040;2022-09-09T08:43:31;102052.88;;;14.40;60.79
50380;BME280;37474;59.468;18.040;2022-09-09T08:46:15;102043.91;;;14.60;60.96
50380;BME280;37474;59.468;18.040;2022-09-09T08:48:52;102052.78;;;14.91;60.51
50380;BME280;37474;59.468;18.040;2022-09-09T08:51:29;102057.38;;;14.71;60.59
50380;BME280;37474;59.468;18.040;2022-09-09T08:54:03;102053.03;;;14.70;59.05
50380;BME280;37474;59.468;18.040;2022-09-09T08:56:38;102048.34;;;14.91;58.54
50380;BME280;37474;59.468;18.040;2022-09-09T08:59:11;102047.16;;;14.97;59.03
50380;BME280;37474;59.468;18.040;2022-09-09T09:01:51;102045.22;;;15.16;57.30
50380;BME280;37474;59.468;18.040;2022-09-09T09:04:58;102042.31;;;15.05;58.48
50380;BME280;37474;59.468;18.040;2022-09-09T09:07:54;102051.75;;;14.78;57.61
50380;BME280;37474;59.468;18.040;2022-09-09T09:10:37;102049.13;;;14.78;57.92
50380;BME280;37474;59.468;18.040;2022-09-09T09:13:13;102053.72;;;14.90;58.61
50380;BME280;37474;59.468;18.040;2022-09-09T09:15:47;102034.22;;;15.08;57.83
50380;BME280;37474;59.468;18.040;2022-09-09T09:18:20;102041.53;;;15.34;57.26
50380;BME280;37474;59.468;18.040;2022-09-09T09:20:55;102030.47;;;15.12;57.23
50380;BME280;37474;59.468;18.040;2022-09-09T09:23:33;102016.75;;;15.21;57.13
50380;BME280;37474;59.468;18.040;2022-09-09T09:26:09;102040.66;;;15.50;55.40
50380;BME280;37474;59.468;18.040;2022-09-09T09:28:41;102039.69;;;15.05;54.78
50380;BME280;37474;59.468;18.040;2022-09-09T09:31:14;102042.91;;;14.79;54.14
50380;BME280;37474;59.468;18.040;2022-09-09T09:33:49;102047.00;;;15.00;54.90
50380;BME280;37474;59.468;18.040;2022-09-09T09:36:24;102041.47;;;15.20;54.47
50380;BME280;37474;59.468;18.040;2022-09-09T09:39:03;102040.84;;;15.31;55.74
50380;BME280;37474;59.468;18.040;2022-09-09T09:41:54;102043.69;;;15.12;55.18
50380;BME280;37474;59.468;18.040;2022-09-09T09:44:26;102041.53;;;15.19;55.06
50380;BME280;37474;59.468;18.040;2022-09-09T09:47:08;102042.56;;;15.00;55.17
50380;BME280;37474;59.468;18.040;2022-09-09T09:49:51;102029.38;;;15.16;55.11
50380;BME280;37474;59.468;18.040;2022-09-09T09:52:22;102026.91;;;14.97;53.99
50380;BME280;37474;59.468;18.040;2022-09-09T09:54:58;102028.09;;;14.92;55.21
50380;BME280;37474;59.468;18.040;2022-09-09T09:57:33;102023.75;;;14.91;55.07
50380;BME280;37474;59.468;18.040;2022-09-09T10:00:13;102024.97;;;15.01;55.61
50380;BME280;37474;59.468;18.040;2022-09-09T10:02:46;102027.06;;;15.26;55.53
50380;BME280;37474;59.468;18.040;2022-09-09T10:05:23;102032.56;;;15.37;55.55
50380;BME280;37474;59.468;18.040;2022-09-09T10:08:04;102019.09;;;14.96;55.78
50380;BME280;37474;59.468;18.040;2022-09-09T10:10:45;102033.81;;;15.00;56.30
50380;BME280;37474;59.468;18.040;2022-09-09T10:13:20;102019.44;;;14.90;56.37
50380;BME280;37474;59.468;18.040;2022-09-09T10:16:06;102022.16;;;15.04;56.25
50380;BME280;37474;59.468;18.040;2022-09-09T10:18:55;102019.09;;;14.96;56.52
50380;BME280;37474;59.468;18.040;2022-09-09T10:21:49;102018.13;;;15.28;57.34
50380;BME280;37474;59.468;18.040;2022-09-09T10:24:40;102008.28;;;15.46;56.11
50380;BME280;37474;59.468;18.040;2022-09-09T10:27:19;102006.25;;;16.10;55.40
50380;BME280;37474;59.468;18.040;2022-09-09T10:30:06;102014.53;;;16.75;54.42
50380;BME280;37474;59.468;18.040;2022-09-09T10:32:51;102000.09;;;16.66;51.14
50380;BME280;37474;59.468;18.040;2022-09-09T10:35:35;102008.91;;;16.38;52.30
50380;BME280;37474;59.468;18.040;2022-09-09T10:38:15;101997.34;;;15.96;52.01
50380;BME280;37474;59.468;18.040;2022-09-09T10:41:03;102006.44;;;16.07;52.44
50380;BME280;37474;59.468;18.040;2022-09-09T10:43:56;102008.59;;;16.57;52.14
50380;BME280;37474;59.468;18.040;2022-09-09T10:46:40;101999.31;;;16.78;50.77
50380;BME280;37474;59.468;18.040;2022-09-09T10:49:22;102007.44;;;16.75;51.45
50380;BME280;37474;59.468;18.040;2022-09-09T10:52:04;102026.00;;;17.02;49.36
50380;BME280;37474;59.468;18.040;2022-09-09T10:54:46;102009.84;;;16.92;48.33
50380;BME280;37474;59.468;18.040;2022-09-09T10:57:27;102012.84;;;16.17;50.03
50380;BME280;37474;59.468;18.040;2022-09-09T11:00:10;102008.31;;;16.05;51.37
50380;BME280;37474;59.468;18.040;2022-09-09T11:02:57;102005.09;;;15.85;51.29
50380;BME280;37474;59.468;18.040;2022-09-09T11:05:29;102008.31;;;15.60;52.04
50380;BME280;37474;59.468;18.040;2022-09-09T11:08:09;102002.09;;;15.31;52.68
50380;BME280;37474;59.468;18.040;2022-09-09T11:10:41;102017.22;;;14.98;53.37
50380;BME280;37474;59.468;18.040;2022-09-09T11:13:21;102006.84;;;14.79;54.83
50380;BME280;37474;59.468;18.040;2022-09-09T11:15:56;101996.78;;;15.01;53.79
50380;BME280;37474;59.468;18.040;2022-09-09T11:18:39;101982.78;;;15.75;53.24
50380;BME280;37474;59.468;18.040;2022-09-09T11:21:15;102003.88;;;15.91;51.70
50380;BME280;37474;59.468;18.040;2022-09-09T11:23:54;101996.25;;;16.29;51.34
50380;BME280;37474;59.468;18.040;2022-09-09T11:26:30;102001.69;;;15.83;51.95
50380;BME280;37474;59.468;18.040;2022-09-09T11:29:11;101988.31;;;16.29;51.65
50380;BME280;37474;59.468;18.040;2022-09-09T11:31:48;101976.47;;;16.63;50.94
50380;BME280;37474;59.468;18.040;2022-09-09T11:34:36;101995.84;;;17.44;49.59
50380;BME280;37474;59.468;18.040;2022-09-09T11:37:23;102005.31;;;16.39;50.29
50380;BME280;37474;59.468;18.040;2022-09-09T11:40:19;101989.16;;;16.29;51.52
50380;BME280;37474;59.468;18.040;2022-09-09T11:43:01;102001.41;;;17.00;49.96
50380;BME280;37474;59.468;18.040;2022-09-09T11:45:33;102004.16;;;16.43;50.00
50380;BME280;37474;59.468;18.040;2022-09-09T11:48:03;102000.41;;;16.33;50.23
50380;BME280;37474;59.468;18.040;2022-09-09T11:50:34;102001.16;;;16.90;49.30
50380;BME280;37474;59.468;18.040;2022-09-09T11:53:20;101985.94;;;16.53;49.92
50380;BME280;37474;59.468;18.040;2022-09-09T11:56:09;101990.56;;;16.49;50.22
50380;BME280;37474;59.468;18.040;2022-09-09T11:58:40;101988.88;;;16.20;51.76
50380;BME280;37474;59.468;18.040;2022-09-09T12:01:14;101973.28;;;16.29;50.54
50380;BME280;37474;59.468;18.040;2022-09-09T12:03:48;101984.44;;;16.34;51.04
50380;BME280;37474;59.468;18.040;2022-09-09T12:06:25;101988.16;;;16.73;50.27
50380;BME280;37474;59.468;18.040;2022-09-09T12:09:18;101980.38;;;16.84;49.20
50380;BME280;37474;59.468;18.040;2022-09-09T12:11:51;101979.28;;;16.74;50.51
50380;BME280;37474;59.468;18.040;2022-09-09T12:14:21;101974.09;;;16.73;50.14
50380;BME280;37474;59.468;18.040;2022-09-09T12:16:49;101983.69;;;16.32;50.67
50380;BME280;37474;59.468;18.040;2022-09-09T12:19:20;101979.63;;;16.27;51.40
50380;BME280;37474;59.468;18.040;2022-09-09T12:21:58;101981.38;;;16.69;51.31
50380;BME280;37474;59.468;18.040;2022-09-09T12:24:33;101969.34;;;16.78;51.15
50380;BME280;37474;59.468;18.040;2022-09-09T12:27:14;101976.88;;;16.28;52.26
50380;BME280;37474;59.468;18.040;2022-09-09T12:29:55;101977.72;;;16.29;53.12
50380;BME280;37474;59.468;18.040;2022-09-09T12:32:31;101962.72;;;16.29;52.91
50380;BME280;37474;59.468;18.040;2022-09-09T12:35:03;101975.56;;;16.21;53.17
50380;BME280;37474;59.468;18.040;2022-09-09T12:37:47;101983.69;;;16.18;53.07
50380;BME280;37474;59.468;18.040;2022-09-09T12:40:24;101978.50;;;16.17;52.81
50380;BME280;37474;59.468;18.040;2022-09-09T12:42:55;101965.16;;;16.47;53.19
50380;BME280;37474;59.468;18.040;2022-09-09T12:45:27;101967.78;;;16.61;51.75
50380;BME280;37474;59.468;18.040;2022-09-09T12:48:02;101975.41;;;16.65;51.68
50380;BME280;37474;59.468;18.040;2022-09-09T12:50:36;101971.81;;;16.66;51.18
50380;BME280;37474;59.468;18.040;2022-09-09T12:53:10;101970.66;;;16.15;52.58
50380;BME280;37474;59.468;18.040;2022-09-09T12:55:52;101959.69;;;15.93;53.41
50380;BME280;37474;59.468;18.040;2022-09-09T12:58:24;101953.75;;;16.03;53.42
50380;BME280;37474;59.468;18.040;2022-09-09T13:00:56;101965.66;;;16.25;52.61
50380;BME280;37474;59.468;18.040;2022-09-09T13:03:27;101961.84;;;16.57;52.11
50380;BME280;37474;59.468;18.040;2022-09-09T13:06:10;101945.44;;;16.10;53.36
50380;BME280;37474;59.468;18.040;2022-09-09T13:08:40;101962.25;;;16.09;52.63
50380;BME280;37474;59.468;18.040;2022-09-09T13:11:14;101952.53;;;16.09;53.23
50380;BME280;37474;59.468;18.040;2022-09-09T13:13:52;101953.28;;;16.40;53.24
50380;BME280;37474;59.468;18.040;2022-09-09T13:16:26;101956.59;;;16.29;51.78
50380;BME280;37474;59.468;18.040;2022-09-09T13:19:08;101956.59;;;15.86;52.34